sensor_id;sensor_type;location;lat;lon;timestamp;temperature;humidity
56300;DHT22;42209;6.376;-10.782;2023-11-22T00:00:48;23.10;64.50
56300;DHT22;42209;6.376;-10.782;2023-11-22T00:03:17;23.30;66.10
56300;DHT22;42209;6.376;-10.782;2023-11-22T00:05:45;23.40;63.90
56300;DHT22;42209;6.376;-10.782;2023-11-22T00:08:14;23.20;59.30
56300;DHT22;42209;6.376;-10.782;2023-11-22T00:10:42;23.00;57.10
56300;DHT22;42209;6.376;-10.782;2023-11-22T00:13:11;22.90;56.10
56300;DHT22;42209;6.376;-10.782;2023-11-22T00:15:39;22.80;55.10
56300;DHT22;42209;6.376;-10.782;2023-11-22T00:18:08;22.90;60.30
56300;DHT22;42209;6.376;-10.782;2023-11-22T00:20:36;23.00;63.30
56300;DHT22;42209;6.376;-10.782;2023-11-22T00:23:05;23.30;65.30
56300;DHT22;42209;6.376;-10.782;2023-11-22T00:25:33;23.40;66.90
56300;DHT22;42209;6.376;-10.782;2023-11-22T00:28:01;23.30;60.20
56300;DHT22;42209;6.376;-10.782;2023-11-22T00:30:30;23.10;57.90
56300;DHT22;42209;6.376;-10.782;2023-11-22T00:32:58;22.90;56.60
56300;DHT22;42209;6.376;-10.782;2023-11-22T00:35:28;22.80;55.20
56300;DHT22;42209;6.376;-10.782;2023-11-22T00:37:57;22.80;54.20
56300;DHT22;42209;6.376;-10.782;2023-11-22T00:40:25;22.70;59.00
56300;DHT22;42209;6.376;-10.782;2023-11-22T00:42:53;22.90;62.20
56300;DHT22;42209;6.376;-10.782;2023-11-22T00:45:22;23.20;64.30
56300;DHT22;42209;6.376;-10.782;2023-11-22T00:47:51;23.40;66.40
56300;DHT22;42209;6.376;-10.782;2023-11-22T00:50:19;23.40;61.50
56300;DHT22;42209;6.376;-10.782;2023-11-22T00:52:47;23.20;58.20
56300;DHT22;42209;6.376;-10.782;2023-11-22T00:55:16;23.00;56.70
56300;DHT22;42209;6.376;-10.782;2023-11-22T00:57:45;22.80;55.20
56300;DHT22;42209;6.376;-10.782;2023-11-22T01:00:13;22.80;54.60
56300;DHT22;42209;6.376;-10.782;2023-11-22T01:02:41;22.70;58.00
56300;DHT22;42209;6.376;-10.782;2023-11-22T01:05:10;22.90;61.90
56300;DHT22;42209;6.376;-10.782;2023-11-22T01:07:39;23.10;63.90
56300;DHT22;42209;6.376;-10.782;2023-11-22T01:10:08;23.30;66.20
56300;DHT22;42209;6.376;-10.782;2023-11-22T01:12:36;23.40;63.00
56300;DHT22;42209;6.376;-10.782;2023-11-22T01:15:05;23.30;58.70
56300;DHT22;42209;6.376;-10.782;2023-11-22T01:17:34;23.00;56.60
56300;DHT22;42209;6.376;-10.782;2023-11-22T01:20:03;22.90;55.70
56300;DHT22;42209;6.376;-10.782;2023-11-22T01:22:32;22.80;58.40
56300;DHT22;42209;6.376;-10.782;2023-11-22T01:25:00;23.00;62.50
56300;DHT22;42209;6.376;-10.782;2023-11-22T01:27:28;23.20;64.60
56300;DHT22;42209;6.376;-10.782;2023-11-22T01:29:57;23.30;66.40
56300;DHT22;42209;6.376;-10.782;2023-11-22T01:32:25;23.40;61.70
56300;DHT22;42209;6.376;-10.782;2023-11-22T01:34:54;23.20;58.40
56300;DHT22;42209;6.376;-10.782;2023-11-22T01:37:22;23.00;56.70
56300;DHT22;42209;6.376;-10.782;2023-11-22T01:39:51;22.90;55.50
56300;DHT22;42209;6.376;-10.782;2023-11-22T01:42:19;22.80;55.00
56300;DHT22;42209;6.376;-10.782;2023-11-22T01:44:48;22.80;60.00
56300;DHT22;42209;6.376;-10.782;2023-11-22T01:47:16;23.10;63.00
56300;DHT22;42209;6.376;-10.782;2023-11-22T01:49:46;23.30;64.70
56300;DHT22;42209;6.376;-10.782;2023-11-22T01:52:15;23.40;66.40
56300;DHT22;42209;6.376;-10.782;2023-11-22T01:54:43;23.40;60.80
56300;DHT22;42209;6.376;-10.782;2023-11-22T01:57:12;23.20;58.20
56300;DHT22;42209;6.376;-10.782;2023-11-22T01:59:40;23.00;56.60
56300;DHT22;42209;6.376;-10.782;2023-11-22T02:02:10;22.80;55.90
56300;DHT22;42209;6.376;-10.782;2023-11-22T02:04:38;22.70;54.80
56300;DHT22;42209;6.376;-10.782;2023-11-22T02:07:07;22.90;60.70
56300;DHT22;42209;6.376;-10.782;2023-11-22T02:09:35;23.00;63.50
56300;DHT22;42209;6.376;-10.782;2023-11-22T02:12:04;23.20;65.40
56300;DHT22;42209;6.376;-10.782;2023-11-22T02:14:32;23.40;65.60
56300;DHT22;42209;6.376;-10.782;2023-11-22T02:17:01;23.30;59.80
56300;DHT22;42209;6.376;-10.782;2023-11-22T02:19:29;23.10;57.50
56300;DHT22;42209;6.376;-10.782;2023-11-22T02:21:58;23.00;56.30
56300;DHT22;42209;6.376;-10.782;2023-11-22T02:24:26;22.80;54.50
56300;DHT22;42209;6.376;-10.782;2023-11-22T02:26:55;22.80;58.70
56300;DHT22;42209;6.376;-10.782;2023-11-22T02:29:23;22.90;62.30
56300;DHT22;42209;6.376;-10.782;2023-11-22T02:31:52;23.20;64.60
56300;DHT22;42209;6.376;-10.782;2023-11-22T02:34:20;23.30;66.00
56300;DHT22;42209;6.376;-10.782;2023-11-22T02:36:48;23.40;62.20
56300;DHT22;42209;6.376;-10.782;2023-11-22T02:39:42;23.20;58.60
56300;DHT22;42209;6.376;-10.782;2023-11-22T02:42:13;23.00;56.60
56300;DHT22;42209;6.376;-10.782;2023-11-22T02:44:42;22.80;55.50
56300;DHT22;42209;6.376;-10.782;2023-11-22T02:47:10;22.70;54.80
56300;DHT22;42209;6.376;-10.782;2023-11-22T02:49:39;22.80;60.30
56300;DHT22;42209;6.376;-10.782;2023-11-22T02:52:09;23.00;63.10
56300;DHT22;42209;6.376;-10.782;2023-11-22T02:54:37;23.20;64.90
56300;DHT22;42209;6.376;-10.782;2023-11-22T02:57:06;23.40;66.20
56300;DHT22;42209;6.376;-10.782;2023-11-22T02:59:34;23.40;61.20
56300;DHT22;42209;6.376;-10.782;2023-11-22T03:02:03;23.20;58.10
56300;DHT22;42209;6.376;-10.782;2023-11-22T03:04:31;23.00;56.60
56300;DHT22;42209;6.376;-10.782;2023-11-22T03:07:00;22.80;55.40
56300;DHT22;42209;6.376;-10.782;2023-11-22T03:09:28;22.70;56.70
56300;DHT22;42209;6.376;-10.782;2023-11-22T03:11:56;22.90;62.30
56300;DHT22;42209;6.376;-10.782;2023-11-22T03:14:25;23.10;64.50
56300;DHT22;42209;6.376;-10.782;2023-11-22T03:16:53;23.30;66.40
56300;DHT22;42209;6.376;-10.782;2023-11-22T03:19:22;23.40;65.40
56300;DHT22;42209;6.376;-10.782;2023-11-22T03:21:50;23.30;60.00
56300;DHT22;42209;6.376;-10.782;2023-11-22T03:24:19;23.10;57.60
56300;DHT22;42209;6.376;-10.782;2023-11-22T03:26:48;22.90;56.50
56300;DHT22;42209;6.376;-10.782;2023-11-22T03:29:17;22.80;57.90
56300;DHT22;42209;6.376;-10.782;2023-11-22T03:31:45;22.90;62.80
56300;DHT22;42209;6.376;-10.782;2023-11-22T03:34:14;23.10;65.20
56300;DHT22;42209;6.376;-10.782;2023-11-22T03:36:42;23.30;66.60
56300;DHT22;42209;6.376;-10.782;2023-11-22T03:39:11;23.40;65.10
56300;DHT22;42209;6.376;-10.782;2023-11-22T03:41:40;23.30;60.10
56300;DHT22;42209;6.376;-10.782;2023-11-22T03:44:08;23.10;58.70
56300;DHT22;42209;6.376;-10.782;2023-11-22T03:46:38;22.90;57.50
56300;DHT22;42209;6.376;-10.782;2023-11-22T03:49:08;22.80;56.00
56300;DHT22;42209;6.376;-10.782;2023-11-22T03:51:37;22.80;59.80
56300;DHT22;42209;6.376;-10.782;2023-11-22T03:54:06;22.90;63.30
56300;DHT22;42209;6.376;-10.782;2023-11-22T03:56:34;23.20;65.30
56300;DHT22;42209;6.376;-10.782;2023-11-22T03:59:02;23.30;67.00
56300;DHT22;42209;6.376;-10.782;2023-11-22T04:01:31;23.40;63.40
56300;DHT22;42209;6.376;-10.782;2023-11-22T04:03:59;23.30;59.40
56300;DHT22;42209;6.376;-10.782;2023-11-22T04:06:28;23.00;57.80
56300;DHT22;42209;6.376;-10.782;2023-11-22T04:08:59;22.80;56.30
56300;DHT22;42209;6.376;-10.782;2023-11-22T04:11:28;22.70;57.30
56300;DHT22;42209;6.376;-10.782;2023-11-22T04:13:56;22.90;62.40
56300;DHT22;42209;6.376;-10.782;2023-11-22T04:16:25;23.10;65.00
56300;DHT22;42209;6.376;-10.782;2023-11-22T04:18:53;23.30;66.60
56300;DHT22;42209;6.376;-10.782;2023-11-22T04:21:22;23.40;64.50
56300;DHT22;42209;6.376;-10.782;2023-11-22T04:23:50;23.30;59.80
56300;DHT22;42209;6.376;-10.782;2023-11-22T04:26:19;23.00;58.00
56300;DHT22;42209;6.376;-10.782;2023-11-22T04:28:48;22.80;56.80
56300;DHT22;42209;6.376;-10.782;2023-11-22T04:31:16;22.80;59.90
56300;DHT22;42209;6.376;-10.782;2023-11-22T04:33:45;22.90;64.00
56300;DHT22;42209;6.376;-10.782;2023-11-22T04:36:13;23.10;65.90
56300;DHT22;42209;6.376;-10.782;2023-11-22T04:38:42;23.30;67.50
56300;DHT22;42209;6.376;-10.782;2023-11-22T04:41:10;23.40;65.30
56300;DHT22;42209;6.376;-10.782;2023-11-22T04:43:39;23.30;60.60
56300;DHT22;42209;6.376;-10.782;2023-11-22T04:46:07;23.10;58.30
56300;DHT22;42209;6.376;-10.782;2023-11-22T04:48:36;22.90;56.70
56300;DHT22;42209;6.376;-10.782;2023-11-22T04:51:04;22.70;57.00
56300;DHT22;42209;6.376;-10.782;2023-11-22T04:53:33;22.80;62.90
56300;DHT22;42209;6.376;-10.782;2023-11-22T04:56:01;23.00;65.10
56300;DHT22;42209;6.376;-10.782;2023-11-22T04:58:30;23.20;67.50
56300;DHT22;42209;6.376;-10.782;2023-11-22T05:00:59;23.40;68.70
56300;DHT22;42209;6.376;-10.782;2023-11-22T05:03:28;23.30;62.20
56300;DHT22;42209;6.376;-10.782;2023-11-22T05:05:56;23.10;59.50
56300;DHT22;42209;6.376;-10.782;2023-11-22T05:08:25;22.90;57.80
56300;DHT22;42209;6.376;-10.782;2023-11-22T05:10:53;22.80;57.90
56300;DHT22;42209;6.376;-10.782;2023-11-22T05:13:23;22.90;63.40
56300;DHT22;42209;6.376;-10.782;2023-11-22T05:15:51;23.10;65.60
56300;DHT22;42209;6.376;-10.782;2023-11-22T05:18:20;23.30;67.30
56300;DHT22;42209;6.376;-10.782;2023-11-22T05:20:48;23.40;66.70
56300;DHT22;42209;6.376;-10.782;2023-11-22T05:23:17;23.30;61.20
56300;DHT22;42209;6.376;-10.782;2023-11-22T05:25:45;23.00;58.60
56300;DHT22;42209;6.376;-10.782;2023-11-22T05:28:14;22.90;57.30
56300;DHT22;42209;6.376;-10.782;2023-11-22T05:30:42;22.80;62.10
56300;DHT22;42209;6.376;-10.782;2023-11-22T05:33:10;22.90;65.40
56300;DHT22;42209;6.376;-10.782;2023-11-22T05:35:39;23.10;66.80
56300;DHT22;42209;6.376;-10.782;2023-11-22T05:38:07;23.30;68.60
56300;DHT22;42209;6.376;-10.782;2023-11-22T05:40:36;23.40;64.70
56300;DHT22;42209;6.376;-10.782;2023-11-22T05:43:04;23.20;60.70
56300;DHT22;42209;6.376;-10.782;2023-11-22T05:45:36;23.00;59.00
56300;DHT22;42209;6.376;-10.782;2023-11-22T05:48:05;22.80;57.10
56300;DHT22;42209;6.376;-10.782;2023-11-22T05:50:33;22.80;62.80
56300;DHT22;42209;6.376;-10.782;2023-11-22T05:53:02;23.00;65.80
56300;DHT22;42209;6.376;-10.782;2023-11-22T05:55:30;23.20;67.30
56300;DHT22;42209;6.376;-10.782;2023-11-22T05:57:59;23.40;68.40
56300;DHT22;42209;6.376;-10.782;2023-11-22T06:00:27;23.40;65.40
56300;DHT22;42209;6.376;-10.782;2023-11-22T06:02:56;23.20;61.00
56300;DHT22;42209;6.376;-10.782;2023-11-22T06:05:25;23.00;58.80
56300;DHT22;42209;6.376;-10.782;2023-11-22T06:07:53;22.80;58.20
56300;DHT22;42209;6.376;-10.782;2023-11-22T06:10:22;22.90;63.80
56300;DHT22;42209;6.376;-10.782;2023-11-22T06:12:50;23.00;66.20
56300;DHT22;42209;6.376;-10.782;2023-11-22T06:15:18;23.20;68.00
56300;DHT22;42209;6.376;-10.782;2023-11-22T06:17:47;23.40;69.40
56300;DHT22;42209;6.376;-10.782;2023-11-22T06:20:16;23.40;64.90
56300;DHT22;42209;6.376;-10.782;2023-11-22T06:22:45;23.20;60.90
56300;DHT22;42209;6.376;-10.782;2023-11-22T06:25:13;23.00;58.70
56300;DHT22;42209;6.376;-10.782;2023-11-22T06:27:42;22.80;59.20
56300;DHT22;42209;6.376;-10.782;2023-11-22T06:30:10;22.90;64.50
56300;DHT22;42209;6.376;-10.782;2023-11-22T06:32:39;23.10;66.70
56300;DHT22;42209;6.376;-10.782;2023-11-22T06:35:08;23.30;69.30
56300;DHT22;42209;6.376;-10.782;2023-11-22T06:37:37;23.40;69.20
56300;DHT22;42209;6.376;-10.782;2023-11-22T06:40:06;23.30;62.70
56300;DHT22;42209;6.376;-10.782;2023-11-22T06:42:35;23.10;59.90
56300;DHT22;42209;6.376;-10.782;2023-11-22T06:45:04;22.90;58.60
56300;DHT22;42209;6.376;-10.782;2023-11-22T06:47:34;22.80;62.30
56300;DHT22;42209;6.376;-10.782;2023-11-22T06:50:02;23.00;65.70
56300;DHT22;42209;6.376;-10.782;2023-11-22T06:52:31;23.20;67.70
56300;DHT22;42209;6.376;-10.782;2023-11-22T06:54:59;23.30;69.90
56300;DHT22;42209;6.376;-10.782;2023-11-22T06:57:28;23.40;68.30
56300;DHT22;42209;6.376;-10.782;2023-11-22T06:59:56;23.30;64.50
56300;DHT22;42209;6.376;-10.782;2023-11-22T07:02:25;23.10;62.90
56300;DHT22;42209;6.376;-10.782;2023-11-22T07:04:53;22.80;61.70
56300;DHT22;42209;6.376;-10.782;2023-11-22T07:07:22;22.80;61.00
56300;DHT22;42209;6.376;-10.782;2023-11-22T07:09:50;22.80;59.40
56300;DHT22;42209;6.376;-10.782;2023-11-22T07:12:19;22.80;63.90
56300;DHT22;42209;6.376;-10.782;2023-11-22T07:14:47;23.00;67.90
56300;DHT22;42209;6.376;-10.782;2023-11-22T07:17:16;23.20;69.80
56300;DHT22;42209;6.376;-10.782;2023-11-22T07:19:45;23.40;71.60
56300;DHT22;42209;6.376;-10.782;2023-11-22T07:22:13;23.40;68.70
56300;DHT22;42209;6.376;-10.782;2023-11-22T07:24:43;23.20;63.30
56300;DHT22;42209;6.376;-10.782;2023-11-22T07:27:12;23.10;61.10
56300;DHT22;42209;6.376;-10.782;2023-11-22T07:29:43;22.90;59.80
56300;DHT22;42209;6.376;-10.782;2023-11-22T07:32:12;22.80;58.80
56300;DHT22;42209;6.376;-10.782;2023-11-22T07:34:40;22.80;64.00
56300;DHT22;42209;6.376;-10.782;2023-11-22T07:37:09;23.00;66.80
56300;DHT22;42209;6.376;-10.782;2023-11-22T07:39:37;23.20;68.50
56300;DHT22;42209;6.376;-10.782;2023-11-22T07:42:06;23.40;70.50
56300;DHT22;42209;6.376;-10.782;2023-11-22T07:44:37;23.40;66.10
56300;DHT22;42209;6.376;-10.782;2023-11-22T07:47:06;23.20;61.90
56300;DHT22;42209;6.376;-10.782;2023-11-22T07:49:34;23.00;60.00
56300;DHT22;42209;6.376;-10.782;2023-11-22T07:52:04;22.80;58.70
56300;DHT22;42209;6.376;-10.782;2023-11-22T07:54:33;22.80;62.60
56300;DHT22;42209;6.376;-10.782;2023-11-22T07:57:01;23.00;66.10
56300;DHT22;42209;6.376;-10.782;2023-11-22T07:59:30;23.20;68.20
56300;DHT22;42209;6.376;-10.782;2023-11-22T08:01:58;23.30;69.80
56300;DHT22;42209;6.376;-10.782;2023-11-22T08:04:27;23.40;67.60
56300;DHT22;42209;6.376;-10.782;2023-11-22T08:06:55;23.20;62.80
56300;DHT22;42209;6.376;-10.782;2023-11-22T08:09:23;23.00;60.60
56300;DHT22;42209;6.376;-10.782;2023-11-22T08:11:52;22.80;59.10
56300;DHT22;42209;6.376;-10.782;2023-11-22T08:14:20;22.80;62.70
56300;DHT22;42209;6.376;-10.782;2023-11-22T08:16:51;22.90;66.50
56300;DHT22;42209;6.376;-10.782;2023-11-22T08:19:20;23.10;68.50
56300;DHT22;42209;6.376;-10.782;2023-11-22T08:21:48;23.30;70.10
56300;DHT22;42209;6.376;-10.782;2023-11-22T08:24:17;23.40;69.60
56300;DHT22;42209;6.376;-10.782;2023-11-22T08:26:45;23.30;65.60
56300;DHT22;42209;6.376;-10.782;2023-11-22T08:33:06;22.90;64.30
56300;DHT22;42209;6.376;-10.782;2023-11-22T08:35:35;23.20;66.90
56300;DHT22;42209;6.376;-10.782;2023-11-22T08:38:07;23.30;69.20
56300;DHT22;42209;6.376;-10.782;2023-11-22T08:40:35;23.40;67.60
56300;DHT22;42209;6.376;-10.782;2023-11-22T08:43:07;23.20;63.10
56300;DHT22;42209;6.376;-10.782;2023-11-22T08:45:36;23.00;61.00
56300;DHT22;42209;6.376;-10.782;2023-11-22T08:48:05;22.80;60.00
56300;DHT22;42209;6.376;-10.782;2023-11-22T08:50:43;22.80;59.90
56300;DHT22;42209;6.376;-10.782;2023-11-22T08:53:12;22.90;66.00
56300;DHT22;42209;6.376;-10.782;2023-11-22T08:55:45;23.00;68.30
56300;DHT22;42209;6.376;-10.782;2023-11-22T08:58:14;23.30;69.80
56300;DHT22;42209;6.376;-10.782;2023-11-22T09:00:52;23.40;71.10
56300;DHT22;42209;6.376;-10.782;2023-11-22T09:03:24;23.30;65.60
56300;DHT22;42209;6.376;-10.782;2023-11-22T09:05:52;23.20;62.10
56300;DHT22;42209;6.376;-10.782;2023-11-22T09:08:24;22.90;60.40
56300;DHT22;42209;6.376;-10.782;2023-11-22T09:10:57;22.80;59.20
56300;DHT22;42209;6.376;-10.782;2023-11-22T09:13:26;22.70;62.50
56300;DHT22;42209;6.376;-10.782;2023-11-22T09:15:59;22.90;66.10
56300;DHT22;42209;6.376;-10.782;2023-11-22T09:18:27;23.10;68.00
56300;DHT22;42209;6.376;-10.782;2023-11-22T09:20:56;23.30;69.90
56300;DHT22;42209;6.376;-10.782;2023-11-22T09:23:28;23.40;66.90
56300;DHT22;42209;6.376;-10.782;2023-11-22T09:26:03;23.20;62.20
56300;DHT22;42209;6.376;-10.782;2023-11-22T09:28:35;23.00;60.20
56300;DHT22;42209;6.376;-10.782;2023-11-22T09:31:04;22.80;58.80
56300;DHT22;42209;6.376;-10.782;2023-11-22T09:33:32;22.80;60.70
56300;DHT22;42209;6.376;-10.782;2023-11-22T09:36:00;22.90;65.40
56300;DHT22;42209;6.376;-10.782;2023-11-22T09:38:29;23.00;67.30
56300;DHT22;42209;6.376;-10.782;2023-11-22T09:40:58;23.30;68.90
56300;DHT22;42209;6.376;-10.782;2023-11-22T09:43:27;23.40;67.90
56300;DHT22;42209;6.376;-10.782;2023-11-22T09:45:55;23.20;62.80
56300;DHT22;42209;6.376;-10.782;2023-11-22T09:48:26;23.00;60.70
56300;DHT22;42209;6.376;-10.782;2023-11-22T09:53:51;22.70;57.80
56300;DHT22;42209;6.376;-10.782;2023-11-22T09:56:20;22.80;63.60
56300;DHT22;42209;6.376;-10.782;2023-11-22T09:58:50;23.00;66.60
56300;DHT22;42209;6.376;-10.782;2023-11-22T10:01:24;23.20;68.40
56300;DHT22;42209;6.376;-10.782;2023-11-22T10:03:52;23.30;69.50
56300;DHT22;42209;6.376;-10.782;2023-11-22T10:06:21;23.30;63.40
56300;DHT22;42209;6.376;-10.782;2023-11-22T10:08:50;23.00;60.80
56300;DHT22;42209;6.376;-10.782;2023-11-22T10:11:18;22.90;59.30
56300;DHT22;42209;6.376;-10.782;2023-11-22T10:13:51;22.70;57.90
56300;DHT22;42209;6.376;-10.782;2023-11-22T10:16:19;22.70;58.40
56300;DHT22;42209;6.376;-10.782;2023-11-22T10:18:49;22.80;63.80
56300;DHT22;42209;6.376;-10.782;2023-11-22T10:21:25;23.00;66.20
56300;DHT22;42209;6.376;-10.782;2023-11-22T10:24:00;23.20;68.10
56300;DHT22;42209;6.376;-10.782;2023-11-22T10:26:30;23.30;68.50
56300;DHT22;42209;6.376;-10.782;2023-11-22T10:28:59;23.30;62.60
56300;DHT22;42209;6.376;-10.782;2023-11-22T10:31:28;23.10;60.30
56300;DHT22;42209;6.376;-10.782;2023-11-22T10:33:56;22.90;58.80
56300;DHT22;42209;6.376;-10.782;2023-11-22T10:36:26;22.80;57.80
56300;DHT22;42209;6.376;-10.782;2023-11-22T10:38:54;22.70;56.80
56300;DHT22;42209;6.376;-10.782;2023-11-22T10:41:23;22.60;56.70
56300;DHT22;42209;6.376;-10.782;2023-11-22T10:43:54;22.60;56.30
56300;DHT22;42209;6.376;-10.782;2023-11-22T10:46:28;22.60;56.70
56300;DHT22;42209;6.376;-10.782;2023-11-22T10:48:57;22.70;62.70
56300;DHT22;42209;6.376;-10.782;2023-11-22T10:51:38;22.90;64.80
56300;DHT22;42209;6.376;-10.782;2023-11-22T10:54:08;23.20;67.10
56300;DHT22;42209;6.376;-10.782;2023-11-22T10:56:39;23.30;66.30
56300;DHT22;42209;6.376;-10.782;2023-11-22T10:59:13;23.20;61.20
56300;DHT22;42209;6.376;-10.782;2023-11-22T11:01:45;23.00;58.90
56300;DHT22;42209;6.376;-10.782;2023-11-22T11:04:20;22.80;57.90
56300;DHT22;42209;6.376;-10.782;2023-11-22T11:06:54;22.70;56.60
56300;DHT22;42209;6.376;-10.782;2023-11-22T11:09:24;22.60;56.50
56300;DHT22;42209;6.376;-10.782;2023-11-22T11:11:52;22.80;62.30
56300;DHT22;42209;6.376;-10.782;2023-11-22T11:14:21;23.00;65.00
56300;DHT22;42209;6.376;-10.782;2023-11-22T11:16:51;23.20;66.90
56300;DHT22;42209;6.376;-10.782;2023-11-22T11:19:20;23.40;67.20
56300;DHT22;42209;6.376;-10.782;2023-11-22T11:21:49;23.30;62.10
56300;DHT22;42209;6.376;-10.782;2023-11-22T11:24:17;23.10;59.70
56300;DHT22;42209;6.376;-10.782;2023-11-22T11:26:47;22.90;58.10
56300;DHT22;42209;6.376;-10.782;2023-11-22T11:29:32;22.80;59.50
56300;DHT22;42209;6.376;-10.782;2023-11-22T11:32:03;22.90;60.80
56300;DHT22;42209;6.376;-10.782;2023-11-22T11:34:32;22.90;58.10
56300;DHT22;42209;6.376;-10.782;2023-11-22T11:37:00;22.80;57.10
56300;DHT22;42209;6.376;-10.782;2023-11-22T11:39:29;22.70;56.30
56300;DHT22;42209;6.376;-10.782;2023-11-22T11:42:17;22.60;55.50
56300;DHT22;42209;6.376;-10.782;2023-11-22T11:45:06;22.60;54.90
56300;DHT22;42209;6.376;-10.782;2023-11-22T11:47:35;22.50;53.90
56300;DHT22;42209;6.376;-10.782;2023-11-22T11:50:04;22.50;54.50
56300;DHT22;42209;6.376;-10.782;2023-11-22T11:52:32;22.70;60.70
56300;DHT22;42209;6.376;-10.782;2023-11-22T11:55:01;22.90;63.40
56300;DHT22;42209;6.376;-10.782;2023-11-22T11:57:32;23.10;65.20
56300;DHT22;42209;6.376;-10.782;2023-11-22T12:00:01;23.30;66.60
56300;DHT22;42209;6.376;-10.782;2023-11-22T12:02:37;23.20;61.00
56300;DHT22;42209;6.376;-10.782;2023-11-22T12:05:07;23.00;58.60
56300;DHT22;42209;6.376;-10.782;2023-11-22T12:07:36;22.80;57.40
56300;DHT22;42209;6.376;-10.782;2023-11-22T12:10:05;22.70;56.20
56300;DHT22;42209;6.376;-10.782;2023-11-22T12:12:34;22.70;60.80
56300;DHT22;42209;6.376;-10.782;2023-11-22T12:15:03;22.90;64.00
56300;DHT22;42209;6.376;-10.782;2023-11-22T12:17:32;23.20;66.40
56300;DHT22;42209;6.376;-10.782;2023-11-22T12:20:15;23.30;67.90
56300;DHT22;42209;6.376;-10.782;2023-11-22T12:22:46;23.30;61.80
56300;DHT22;42209;6.376;-10.782;2023-11-22T12:25:15;23.10;59.50
56300;DHT22;42209;6.376;-10.782;2023-11-22T12:27:44;22.90;58.00
56300;DHT22;42209;6.376;-10.782;2023-11-22T12:30:35;22.80;57.10
56300;DHT22;42209;6.376;-10.782;2023-11-22T12:33:06;22.70;55.70
56300;DHT22;42209;6.376;-10.782;2023-11-22T12:35:35;22.70;56.00
56300;DHT22;42209;6.376;-10.782;2023-11-22T12:38:05;22.80;62.90
56300;DHT22;42209;6.376;-10.782;2023-11-22T12:40:34;23.00;64.90
56300;DHT22;42209;6.376;-10.782;2023-11-22T12:43:03;23.30;66.90
56300;DHT22;42209;6.376;-10.782;2023-11-22T12:45:32;23.40;64.90
56300;DHT22;42209;6.376;-10.782;2023-11-22T12:48:02;23.30;60.40
56300;DHT22;42209;6.376;-10.782;2023-11-22T12:50:47;23.10;58.70
56300;DHT22;42209;6.376;-10.782;2023-11-22T12:53:16;22.90;57.40
56300;DHT22;42209;6.376;-10.782;2023-11-22T12:55:46;22.80;56.90
56300;DHT22;42209;6.376;-10.782;2023-11-22T12:58:22;22.80;56.40
56300;DHT22;42209;6.376;-10.782;2023-11-22T13:00:52;22.70;56.00
56300;DHT22;42209;6.376;-10.782;2023-11-22T13:03:21;22.60;55.00
56300;DHT22;42209;6.376;-10.782;2023-11-22T13:05:49;22.60;54.40
56300;DHT22;42209;6.376;-10.782;2023-11-22T13:08:18;22.60;53.70
56300;DHT22;42209;6.376;-10.782;2023-11-22T13:10:50;22.60;53.50
56300;DHT22;42209;6.376;-10.782;2023-11-22T13:13:23;22.60;52.60
56300;DHT22;42209;6.376;-10.782;2023-11-22T13:15:52;22.60;52.70
56300;DHT22;42209;6.376;-10.782;2023-11-22T13:18:21;22.60;52.30
56300;DHT22;42209;6.376;-10.782;2023-11-22T13:20:49;22.60;56.80
56300;DHT22;42209;6.376;-10.782;2023-11-22T13:23:18;22.90;60.70
56300;DHT22;42209;6.376;-10.782;2023-11-22T13:25:47;23.00;62.80
56300;DHT22;42209;6.376;-10.782;2023-11-22T13:28:15;23.20;65.30
56300;DHT22;42209;6.376;-10.782;2023-11-22T13:30:44;23.30;62.70
56300;DHT22;42209;6.376;-10.782;2023-11-22T13:33:13;23.10;58.60
56300;DHT22;42209;6.376;-10.782;2023-11-22T13:35:42;22.90;57.20
56300;DHT22;42209;6.376;-10.782;2023-11-22T13:38:10;22.80;55.90
56300;DHT22;42209;6.376;-10.782;2023-11-22T13:40:39;22.70;55.30
56300;DHT22;42209;6.376;-10.782;2023-11-22T13:43:07;22.70;54.70
56300;DHT22;42209;6.376;-10.782;2023-11-22T13:45:36;22.70;54.20
56300;DHT22;42209;6.376;-10.782;2023-11-22T13:48:05;22.70;53.60
56300;DHT22;42209;6.376;-10.782;2023-11-22T13:50:34;22.60;53.30
56300;DHT22;42209;6.376;-10.782;2023-11-22T13:53:02;22.60;53.60
56300;DHT22;42209;6.376;-10.782;2023-11-22T13:55:31;22.60;52.20
56300;DHT22;42209;6.376;-10.782;2023-11-22T13:58:00;22.60;57.20
56300;DHT22;42209;6.376;-10.782;2023-11-22T14:00:29;22.70;60.50
56300;DHT22;42209;6.376;-10.782;2023-11-22T14:02:58;23.00;63.10
56300;DHT22;42209;6.376;-10.782;2023-11-22T14:05:27;23.20;65.60
56300;DHT22;42209;6.376;-10.782;2023-11-22T14:07:56;23.30;67.80
56300;DHT22;42209;6.376;-10.782;2023-11-22T14:10:25;23.30;62.10
56300;DHT22;42209;6.376;-10.782;2023-11-22T14:12:53;23.10;59.60
56300;DHT22;42209;6.376;-10.782;2023-11-22T14:15:22;22.80;57.80
56300;DHT22;42209;6.376;-10.782;2023-11-22T14:17:50;22.80;60.90
56300;DHT22;42209;6.376;-10.782;2023-11-22T14:20:19;23.10;65.40
56300;DHT22;42209;6.376;-10.782;2023-11-22T14:22:47;23.20;67.90
56300;DHT22;42209;6.376;-10.782;2023-11-22T14:25:16;23.40;70.60
56300;DHT22;42209;6.376;-10.782;2023-11-22T14:27:46;23.40;64.30
56300;DHT22;42209;6.376;-10.782;2023-11-22T14:30:14;23.20;61.20
56300;DHT22;42209;6.376;-10.782;2023-11-22T14:32:43;23.00;58.90
56300;DHT22;42209;6.376;-10.782;2023-11-22T14:35:12;22.90;59.50
56300;DHT22;42209;6.376;-10.782;2023-11-22T14:37:41;23.00;64.10
56300;DHT22;42209;6.376;-10.782;2023-11-22T14:40:09;23.20;67.20
56300;DHT22;42209;6.376;-10.782;2023-11-22T14:42:38;23.40;68.70
56300;DHT22;42209;6.376;-10.782;2023-11-22T14:45:07;23.60;66.70
56300;DHT22;42209;6.376;-10.782;2023-11-22T14:47:36;23.50;62.70
56300;DHT22;42209;6.376;-10.782;2023-11-22T14:50:04;23.30;60.00
56300;DHT22;42209;6.376;-10.782;2023-11-22T14:52:33;23.00;58.00
56300;DHT22;42209;6.376;-10.782;2023-11-22T14:55:01;22.90;60.60
56300;DHT22;42209;6.376;-10.782;2023-11-22T14:57:30;23.00;64.30
56300;DHT22;42209;6.376;-10.782;2023-11-22T14:59:58;23.20;66.90
56300;DHT22;42209;6.376;-10.782;2023-11-22T15:02:26;23.40;69.00
56300;DHT22;42209;6.376;-10.782;2023-11-22T15:04:55;23.50;66.40
56300;DHT22;42209;6.376;-10.782;2023-11-22T15:07:23;23.30;60.70
56300;DHT22;42209;6.376;-10.782;2023-11-22T15:09:52;23.00;57.40
56300;DHT22;42209;6.376;-10.782;2023-11-22T15:12:20;22.80;58.60
56300;DHT22;42209;6.376;-10.782;2023-11-22T15:14:49;23.00;62.90
56300;DHT22;42209;6.376;-10.782;2023-11-22T15:17:17;23.20;65.60
56300;DHT22;42209;6.376;-10.782;2023-11-22T15:19:45;23.30;67.50
56300;DHT22;42209;6.376;-10.782;2023-11-22T15:22:14;23.40;68.00
56300;DHT22;42209;6.376;-10.782;2023-11-22T15:24:43;23.30;61.10
56300;DHT22;42209;6.376;-10.782;2023-11-22T15:27:11;23.10;57.20
56300;DHT22;42209;6.376;-10.782;2023-11-22T15:29:40;22.80;55.60
56300;DHT22;42209;6.376;-10.782;2023-11-22T15:32:08;22.90;61.00
56300;DHT22;42209;6.376;-10.782;2023-11-22T15:34:37;23.10;64.10